Seabreeze — VABC8 — position and weather

sailwx.info

Track history (hours):
 
Tides and Currents Weather Stations Pressure Air Temp Water Temp Dewpoint Dewpoint Depression Visibility Wind Speed Wind Dir Waves Ship Positions

Seabreeze

Last reported at 2018-May-21 23:11 UTC. Time now 2018-May-23 01:36 UTC.
Position S 27°32' E 153°18'.

Length 20 m.

Type: Ship. MMSI: 503760000.

Date/timePositionNaut miles runAvg speedWind from/ knotsBaromVisibWave heightAir tempDewpointWater temp
2018-May-21 23:11S 27°32' E 153°18'5 4.8
2018-May-21 22:03S 27°30' E 153°24'1 2.8
2018-May-21 21:34S 27°31' E 153°23'210.1
2018-May-21 21:24S 27°32' E 153°21'3 7.4
2018-May-21 20:57S 27°32' E 153°17'0 0.0
2018-May-21 20:21S 27°32' E 153°17'0 0.0
2018-May-20 10:42S 27°32' E 153°17'0 0.0
2018-May-20 06:49S 27°32' E 153°17'6 8.4
2018-May-20 06:09S 27°31' E 153°23'1 2.2
2018-May-20 05:44S 27°30' E 153°24'2 8.9
2018-May-20 05:28S 27°32' E 153°22'4 8.5
2018-May-20 04:59S 27°32' E 153°17'6 6.5
2018-May-20 04:06S 27°31' E 153°24'1 3.4
2018-May-20 03:53S 27°30' E 153°24'4 7.0
2018-May-20 03:20S 27°32' E 153°20'3 1.7
2018-May-20 01:40S 27°31' E 153°23'410.9
2018-May-20 01:17S 27°32' E 153°19'5 4.4
2018-May-20 00:09S 27°30' E 153°24'0 0.5
2018-May-19 23:51S 27°30' E 153°24'4 8.8
2018-May-19 23:25S 27°32' E 153°20'3 5.3
2018-May-19 22:54S 27°32' E 153°17'6 7.4
2018-May-19 22:05S 27°31' E 153°24'0 0.0
2018-May-19 06:03S 27°30' E 153°24'6 1.9
2018-May-19 03:08S 27°32' E 153°18'6 0.2
2018-May-18 04:07S 27°30' E 153°24'3 0.1
2018-May-17 01:24S 27°32' E 153°20'3 2.4
2018-May-17 00:09S 27°31' E 153°24'1 1.7
2018-May-16 23:36S 27°31' E 153°23'411.1
2018-May-16 23:14S 27°33' E 153°18'14 0.5
2018-May-15 19:29S 27°20' E 153°11'  
2018-May-13 05:19S 27°32' E 153°19'1 0.1
2018-May-12 21:09S 27°32' E 153°18'  
Track history (hours):
 
Tides and Currents Weather Stations Pressure Air Temp Water Temp Dewpoint Dewpoint Depression Visibility Wind Speed Wind Dir Waves Ship Positions

Seabreeze

Last reported at 2018-May-21 23:11 UTC. Time now 2018-May-23 01:36 UTC.
Position S 27°32' E 153°18'.

Length 20 m.

Type: Ship. MMSI: 503760000.

Date/timePositionNaut miles runAvg speedWind from/ knotsBaromVisibWave heightAir tempDewpointWater temp
2018-May-21 23:11S 27°32' E 153°18'5 4.8
2018-May-21 22:03S 27°30' E 153°24'1 2.8
2018-May-21 21:34S 27°31' E 153°23'210.1
2018-May-21 21:24S 27°32' E 153°21'3 7.4
2018-May-21 20:57S 27°32' E 153°17'0 0.0
2018-May-21 20:21S 27°32' E 153°17'0 0.0
2018-May-20 10:42S 27°32' E 153°17'0 0.0
2018-May-20 06:49S 27°32' E 153°17'6 8.4
2018-May-20 06:09S 27°31' E 153°23'1 2.2
2018-May-20 05:44S 27°30' E 153°24'2 8.9
2018-May-20 05:28S 27°32' E 153°22'4 8.5
2018-May-20 04:59S 27°32' E 153°17'6 6.5
2018-May-20 04:06S 27°31' E 153°24'1 3.4
2018-May-20 03:53S 27°30' E 153°24'4 7.0
2018-May-20 03:20S 27°32' E 153°20'3 1.7
2018-May-20 01:40S 27°31' E 153°23'410.9
2018-May-20 01:17S 27°32' E 153°19'5 4.4
2018-May-20 00:09S 27°30' E 153°24'0 0.5
2018-May-19 23:51S 27°30' E 153°24'4 8.8
2018-May-19 23:25S 27°32' E 153°20'3 5.3
2018-May-19 22:54S 27°32' E 153°17'6 7.4
2018-May-19 22:05S 27°31' E 153°24'0 0.0
2018-May-19 06:03S 27°30' E 153°24'6 1.9
2018-May-19 03:08S 27°32' E 153°18'6 0.2
2018-May-18 04:07S 27°30' E 153°24'3 0.1
2018-May-17 01:24S 27°32' E 153°20'3 2.4
2018-May-17 00:09S 27°31' E 153°24'1 1.7
2018-May-16 23:36S 27°31' E 153°23'411.1
2018-May-16 23:14S 27°33' E 153°18'14 0.5
2018-May-15 19:29S 27°20' E 153°11'  
2018-May-13 05:19S 27°32' E 153°19'1 0.1
2018-May-12 21:09S 27°32' E 153°18'  

Dump ship's entire track history